createdAt,value
2022-10-31T00:01:14.268Z,101549.66
2022-10-31T00:03:40.852Z,101543.66
2022-10-31T00:06:07.651Z,101541.00
2022-10-31T00:08:35.604Z,101547.16
2022-10-31T00:11:02.238Z,101552.31
2022-10-31T00:13:28.834Z,101543.66
2022-10-31T00:15:55.429Z,101547.31
2022-10-31T00:18:21.980Z,101546.31
2022-10-31T00:20:48.562Z,101546.31
2022-10-31T00:23:15.162Z,101549.81
2022-10-31T00:25:41.872Z,101549.16
2022-10-31T00:28:10.491Z,101548.16
2022-10-31T00:30:37.218Z,101543.81
2022-10-31T00:33:05.410Z,101544.66
2022-10-31T00:35:32.290Z,101541.16
2022-10-31T00:37:58.870Z,101550.16
2022-10-31T00:40:25.461Z,101549.16
2022-10-31T00:42:52.033Z,101560.78
2022-10-31T00:45:18.693Z,101551.97
2022-10-31T00:47:45.273Z,101562.63
2022-10-31T00:50:11.843Z,101564.47
2022-10-31T00:52:38.396Z,101568.94
2022-10-31T00:55:05.253Z,101573.25
2022-10-31T00:57:31.821Z,101581.22
2022-10-31T00:59:58.444Z,101583.91
2022-10-31T01:02:25.198Z,101579.59
2022-10-31T01:04:51.995Z,101577.75
2022-10-31T01:07:18.555Z,101573.44
2022-10-31T01:09:45.202Z,101576.13
2022-10-31T01:12:11.767Z,101576.91
2022-10-31T01:14:38.343Z,101572.63
2022-10-31T01:17:04.934Z,101580.59
2022-10-31T01:19:31.607Z,101581.44
2022-10-31T01:21:58.194Z,101581.44
2022-10-31T01:24:24.874Z,101581.44
2022-10-31T01:26:51.448Z,101584.25
2022-10-31T01:29:18.021Z,101577.94
2022-10-31T01:31:44.631Z,101584.09
2022-10-31T01:34:16.089Z,101575.28
2022-10-31T01:36:43.265Z,101583.25
2022-10-31T01:39:12.778Z,101577.28
2022-10-31T01:41:52.254Z,101577.28
2022-10-31T01:44:18.766Z,101579.94
2022-10-31T01:46:52.811Z,101572.78
2022-10-31T01:49:39.505Z,101574.63
2022-10-31T01:52:23.348Z,101570.28
2022-10-31T01:54:53.191Z,101572.13
2022-10-31T01:57:22.195Z,101574.81
2022-10-31T01:59:50.954Z,101572.13
2022-10-31T02:02:18.315Z,101571.31
2022-10-31T02:04:45.878Z,101573.97
2022-10-31T02:07:16.251Z,101579.28
2022-10-31T02:09:44.390Z,101577.63
2022-10-31T02:12:11.736Z,101582.09
2022-10-31T02:14:39.169Z,101582.28
2022-10-31T02:17:05.757Z,101588.28
2022-10-31T02:20:10.535Z,101590.94
2022-10-31T02:22:46.989Z,101586.63
2022-10-31T02:25:38.154Z,101594.59
2022-10-31T02:28:20.684Z,101590.25
2022-10-31T02:31:11.450Z,101595.41
2022-10-31T02:33:44.918Z,101595.56
2022-10-31T02:36:31.756Z,101598.22
2022-10-31T02:39:17.736Z,101594.94
2022-10-31T02:41:53.688Z,101598.22
2022-10-31T02:44:30.630Z,101599.25
2022-10-31T02:47:17.572Z,101608.06
2022-10-31T02:49:48.732Z,101600.09
2022-10-31T02:52:18.965Z,101598.44
2022-10-31T02:54:47.175Z,101606.22
2022-10-31T02:57:14.669Z,101609.88
2022-10-31T02:59:46.049Z,101604.56
2022-10-31T03:02:27.993Z,101606.41
2022-10-31T03:05:11.055Z,101601.91
2022-10-31T03:07:47.042Z,101609.88
2022-10-31T03:10:49.150Z,101609.06
2022-10-31T03:15:55.379Z,101613.53
2022-10-31T03:18:33.605Z,101615.38
2022-10-31T03:21:23.657Z,101622.38
2022-10-31T03:23:51.667Z,101620.69
2022-10-31T03:26:18.995Z,101626.84
2022-10-31T03:28:57.046Z,101627.00
2022-10-31T03:31:27.912Z,101618.38
2022-10-31T03:33:57.365Z,101626.16
2022-10-31T03:36:24.112Z,101622.53
2022-10-31T03:38:51.428Z,101630.69
2022-10-31T03:41:22.183Z,101630.00
2022-10-31T03:44:17.582Z,101632.66
2022-10-31T03:46:45.166Z,101640.47
2022-10-31T03:49:12.241Z,101643.97
2022-10-31T03:51:56.469Z,101650.31
2022-10-31T03:54:45.689Z,101649.47
2022-10-31T03:57:46.636Z,101651.47
2022-10-31T04:00:14.429Z,101655.78
2022-10-31T04:02:48.632Z,101651.47
2022-10-31T04:05:16.619Z,101658.75
2022-10-31T04:07:46.585Z,101656.78
2022-10-31T04:10:16.989Z,101663.09
2022-10-31T04:12:47.199Z,101664.06
2022-10-31T04:15:13.904Z,101659.63
2022-10-31T04:17:42.508Z,101657.78
2022-10-31T04:20:09.921Z,101657.91
2022-10-31T04:22:36.497Z,101655.25
2022-10-31T04:25:03.203Z,101664.94
2022-10-31T04:27:30.110Z,101666.72
2022-10-31T04:29:56.659Z,101669.38
2022-10-31T04:32:23.375Z,101667.59
2022-10-31T04:34:49.948Z,101666.72
2022-10-31T04:37:16.528Z,101672.22
2022-10-31T04:39:43.104Z,101675.56
2022-10-31T04:42:09.685Z,101669.38
2022-10-31T04:44:36.266Z,101678.38
2022-10-31T04:47:02.854Z,101678.38
2022-10-31T04:49:29.440Z,101674.69
2022-10-31T04:51:56.016Z,101680.19
2022-10-31T04:54:22.624Z,101680.19
2022-10-31T04:56:49.202Z,101679.38
2022-10-31T04:59:15.790Z,101680.34
2022-10-31T05:01:42.452Z,101676.03
2022-10-31T05:04:09.252Z,101680.34
2022-10-31T05:06:35.855Z,101683.00
2022-10-31T05:09:02.467Z,101676.03
2022-10-31T05:11:29.040Z,101676.03
2022-10-31T05:13:55.647Z,101676.19
2022-10-31T05:16:22.215Z,101679.69
2022-10-31T05:18:48.780Z,101680.53
2022-10-31T05:21:15.326Z,101682.38
2022-10-31T05:23:45.870Z,101685.19
2022-10-31T05:26:15.036Z,101683.53
2022-10-31T05:28:41.651Z,101687.84
2022-10-31T05:31:08.205Z,101682.69
2022-10-31T05:33:34.763Z,101686.34
2022-10-31T05:36:01.376Z,101690.84
2022-10-31T05:38:27.958Z,101691.69
2022-10-31T05:40:59.091Z,101688.00
2022-10-31T05:43:25.724Z,101697.84
2022-10-31T05:45:56.203Z,101693.50
2022-10-31T05:48:22.939Z,101697.84
2022-10-31T05:50:50.419Z,101703.31
2022-10-31T05:53:17.256Z,101698.81
2022-10-31T05:55:44.382Z,101704.13
2022-10-31T05:58:11.760Z,101701.47
2022-10-31T06:00:38.421Z,101700.66
2022-10-31T06:05:38.875Z,101705.97
2022-10-31T06:08:05.776Z,101708.78
2022-10-31T06:10:32.393Z,101708.78
2022-10-31T06:12:59.007Z,101709.63
2022-10-31T06:15:25.618Z,101708.78
2022-10-31T06:18:02.447Z,101713.09
2022-10-31T06:20:29.367Z,101715.75
2022-10-31T06:22:55.968Z,101714.97
2022-10-31T06:25:22.561Z,101717.63
2022-10-31T06:27:49.190Z,101715.75
2022-10-31T06:30:16.021Z,101718.44
2022-10-31T06:32:42.617Z,101722.94
2022-10-31T06:35:09.427Z,101727.41
2022-10-31T06:37:36.097Z,101734.53
2022-10-31T06:40:02.736Z,101737.19
2022-10-31T06:42:29.311Z,101739.84
2022-10-31T06:44:56.021Z,101735.38
2022-10-31T06:47:22.638Z,101739.84
2022-10-31T06:49:49.273Z,101736.38
2022-10-31T06:52:15.916Z,101741.72
2022-10-31T06:54:42.489Z,101744.38
2022-10-31T06:57:09.081Z,101741.72
2022-10-31T06:59:35.673Z,101751.34
2022-10-31T07:02:02.368Z,101757.50
2022-10-31T07:04:29.101Z,101754.16
2022-10-31T07:06:55.702Z,101758.47
2022-10-31T07:09:22.408Z,101766.44
2022-10-31T07:11:48.990Z,101762.81
2022-10-31T07:14:15.592Z,101761.97
2022-10-31T07:16:42.345Z,101765.47
2022-10-31T07:19:08.992Z,101767.28
2022-10-31T07:21:35.570Z,101773.44
2022-10-31T07:24:02.168Z,101779.56
2022-10-31T07:26:28.999Z,101785.91
2022-10-31T07:28:55.603Z,101780.59
2022-10-31T07:31:22.238Z,101784.09
2022-10-31T07:33:48.828Z,101786.75
2022-10-31T07:36:15.678Z,101782.22
2022-10-31T07:38:42.277Z,101787.56
2022-10-31T07:41:08.995Z,101788.56
2022-10-31T07:43:35.578Z,101791.22
2022-10-31T07:46:02.202Z,101790.22
2022-10-31T07:48:28.820Z,101786.75
2022-10-31T07:50:56.014Z,101784.88
2022-10-31T07:53:22.591Z,101785.72
2022-10-31T07:55:49.197Z,101796.38
2022-10-31T07:58:18.592Z,101785.72
2022-10-31T08:00:47.256Z,101788.41
2022-10-31T08:03:16.516Z,101795.38
2022-10-31T08:05:45.803Z,101798.88
2022-10-31T08:08:13.274Z,101798.88
2022-10-31T08:10:41.456Z,101790.88
2022-10-31T08:13:10.384Z,101796.00
2022-10-31T08:15:40.099Z,101796.84
2022-10-31T08:18:07.410Z,101798.50
2022-10-31T08:20:34.116Z,101795.84
2022-10-31T08:23:03.274Z,101796.69
2022-10-31T08:25:35.281Z,101806.31
2022-10-31T08:28:05.360Z,101803.84
2022-10-31T08:30:33.408Z,101793.19
2022-10-31T08:33:07.073Z,101798.34
2022-10-31T08:35:34.132Z,101798.50
2022-10-31T08:38:01.243Z,101799.53
2022-10-31T08:40:30.166Z,101804.00
2022-10-31T08:43:05.151Z,101803.84
2022-10-31T08:45:33.043Z,101803.84
2022-10-31T08:48:05.636Z,101805.69
2022-10-31T08:50:34.270Z,101800.34
2022-10-31T08:53:15.821Z,101798.69
2022-10-31T08:55:43.213Z,101796.00
2022-10-31T08:58:18.104Z,101797.69
2022-10-31T09:00:46.292Z,101800.19
2022-10-31T09:03:15.482Z,101801.16
2022-10-31T09:05:42.572Z,101802.84
2022-10-31T09:08:15.746Z,101807.50
2022-10-31T09:10:43.747Z,101816.16
2022-10-31T09:13:12.457Z,101810.84
2022-10-31T09:15:40.938Z,101813.31
2022-10-31T09:18:07.948Z,101810.63
2022-10-31T09:20:36.332Z,101817.66
2022-10-31T09:23:09.737Z,101822.97
2022-10-31T09:25:36.815Z,101828.94
2022-10-31T09:28:04.951Z,101818.47
2022-10-31T09:30:34.196Z,101829.81
2022-10-31T09:33:06.668Z,101820.94
2022-10-31T09:35:33.517Z,101827.16
2022-10-31T09:38:05.993Z,101829.81
2022-10-31T09:40:36.610Z,101824.50
2022-10-31T09:43:40.416Z,101824.31
2022-10-31T09:46:37.541Z,101821.47
2022-10-31T09:49:25.205Z,101820.66
2022-10-31T09:51:59.089Z,101819.66
2022-10-31T09:54:50.204Z,101821.31
2022-10-31T09:57:19.566Z,101818.66
2022-10-31T09:59:48.212Z,101817.66
2022-10-31T10:02:19.095Z,101821.00
2022-10-31T10:04:55.538Z,101825.31
2022-10-31T10:07:40.790Z,101828.13
2022-10-31T10:10:48.426Z,101827.97
2022-10-31T10:13:15.382Z,101826.47
2022-10-31T10:15:54.022Z,101823.81
2022-10-31T10:18:25.815Z,101830.94
2022-10-31T10:21:21.389Z,101830.13
2022-10-31T10:23:59.926Z,101829.97
2022-10-31T10:29:03.497Z,101816.84
2022-10-31T10:31:36.225Z,101829.97
2022-10-31T10:34:25.241Z,101823.66
2022-10-31T10:37:05.534Z,101821.63
2022-10-31T10:39:48.233Z,101818.81
2022-10-31T10:42:35.410Z,101823.13
2022-10-31T10:45:34.029Z,101824.47
2022-10-31T10:48:16.627Z,101815.16
2022-10-31T10:50:49.280Z,101812.31
2022-10-31T10:53:39.214Z,101812.81
2022-10-31T10:56:15.130Z,101811.47
2022-10-31T10:58:43.657Z,101807.31
2022-10-31T11:03:40.811Z,101811.28
2022-10-31T11:06:18.170Z,101808.47
2022-10-31T11:08:44.783Z,101801.34
2022-10-31T11:11:31.896Z,101806.19
2022-10-31T11:14:04.567Z,101801.34
2022-10-31T11:16:40.484Z,101799.72
2022-10-31T11:19:19.714Z,101805.19
2022-10-31T11:21:52.618Z,101796.53
2022-10-31T11:24:27.177Z,101799.38
2022-10-31T11:27:10.698Z,101798.53
2022-10-31T11:29:37.783Z,101796.03
2022-10-31T11:32:05.009Z,101790.72
2022-10-31T11:34:34.427Z,101791.72
2022-10-31T11:37:05.536Z,101790.09
2022-10-31T11:39:32.441Z,101794.56
2022-10-31T11:42:07.675Z,101791.06
2022-10-31T11:44:35.556Z,101788.38
2022-10-31T11:47:04.555Z,101779.59
2022-10-31T11:49:40.275Z,101786.56
2022-10-31T11:52:22.227Z,101778.75
2022-10-31T11:55:13.710Z,101785.72
2022-10-31T11:57:49.217Z,101783.28
2022-10-31T12:00:39.799Z,101778.75
2022-10-31T12:03:24.686Z,101777.75
2022-10-31T12:05:54.196Z,101776.09
2022-10-31T12:08:21.073Z,101772.63
2022-10-31T12:11:21.689Z,101771.78
2022-10-31T12:14:06.321Z,101770.78
2022-10-31T12:17:09.562Z,101767.31
2022-10-31T12:20:08.061Z,101763.66
2022-10-31T12:22:37.773Z,101767.78
2022-10-31T12:25:10.203Z,101763.31
2022-10-31T12:27:42.055Z,101769.44
2022-10-31T12:30:22.811Z,101770.47
2022-10-31T12:33:18.739Z,101766.78
2022-10-31T12:36:15.345Z,101764.97
2022-10-31T12:38:50.779Z,101763.13
2022-10-31T12:41:45.227Z,101760.47
2022-10-31T12:44:45.813Z,101756.84
2022-10-31T12:47:40.330Z,101758.47
2022-10-31T12:50:27.663Z,101753.31
2022-10-31T12:53:30.392Z,101748.84
2022-10-31T12:56:05.396Z,101745.34
2022-10-31T12:58:38.631Z,101742.69
2022-10-31T13:01:31.273Z,101737.22
2022-10-31T13:04:13.513Z,101737.22
2022-10-31T13:06:45.147Z,101735.19
2022-10-31T13:09:16.900Z,101733.22
2022-10-31T13:11:49.484Z,101730.72
2022-10-31T13:14:32.807Z,101732.38
2022-10-31T13:17:01.035Z,101729.53
2022-10-31T13:19:43.116Z,101732.53
2022-10-31T13:22:26.102Z,101738.53
2022-10-31T13:24:59.561Z,101729.72
2022-10-31T13:27:45.536Z,101727.88
2022-10-31T13:30:20.475Z,101721.56
2022-10-31T13:32:55.678Z,101719.91
2022-10-31T13:35:33.445Z,101719.91
2022-10-31T13:38:16.116Z,101714.91
2022-10-31T13:41:00.071Z,101721.88
2022-10-31T13:43:29.694Z,101719.22
2022-10-31T13:45:57.826Z,101714.28
2022-10-31T13:48:40.182Z,101716.06
2022-10-31T13:51:09.253Z,101714.75
2022-10-31T13:53:41.621Z,101708.56
2022-10-31T13:56:27.650Z,101710.44
2022-10-31T13:59:16.022Z,101702.94
2022-10-31T14:01:57.122Z,101701.47
2022-10-31T14:04:39.065Z,101707.63
2022-10-31T14:07:05.710Z,101700.63
2022-10-31T14:09:35.549Z,101703.28
2022-10-31T14:12:15.678Z,101704.28
2022-10-31T14:14:52.828Z,101706.09
2022-10-31T14:17:22.661Z,101710.59
2022-10-31T14:20:03.924Z,101699.28
2022-10-31T14:22:36.334Z,101687.84
2022-10-31T14:25:28.394Z,101688.00
2022-10-31T14:27:55.420Z,101680.19
2022-10-31T14:30:25.364Z,101683.03
2022-10-31T14:33:20.535Z,101693.50
2022-10-31T14:36:17.403Z,101684.88
2022-10-31T14:38:57.001Z,101687.69
2022-10-31T14:41:49.026Z,101687.69
2022-10-31T14:44:25.455Z,101687.88
2022-10-31T14:47:11.640Z,101683.38
2022-10-31T14:50:10.567Z,101681.84
2022-10-31T14:52:38.499Z,101683.69
2022-10-31T14:55:11.141Z,101680.19
2022-10-31T14:57:38.668Z,101674.22
2022-10-31T15:00:13.886Z,101682.03
2022-10-31T15:03:05.290Z,101678.53
2022-10-31T15:05:33.182Z,101674.22
2022-10-31T15:08:00.017Z,101674.22
2022-10-31T15:10:33.072Z,101674.22
2022-10-31T15:13:19.550Z,101673.38
2022-10-31T15:15:51.246Z,101669.91
2022-10-31T15:18:26.821Z,101673.38
2022-10-31T15:20:54.576Z,101666.41
2022-10-31T15:23:29.263Z,101663.06
2022-10-31T15:26:03.066Z,101665.56
2022-10-31T15:28:30.434Z,101672.72
2022-10-31T15:30:59.063Z,101666.75
2022-10-31T15:33:30.313Z,101665.56
2022-10-31T15:36:02.801Z,101666.56
2022-10-31T15:38:30.309Z,101667.41
2022-10-31T15:41:03.968Z,101656.78
2022-10-31T15:43:36.003Z,101658.59
2022-10-31T15:46:03.012Z,101655.78
2022-10-31T15:48:32.807Z,101656.78
2022-10-31T15:50:59.951Z,101662.09
2022-10-31T15:53:28.044Z,101663.06
2022-10-31T15:55:57.221Z,101667.56
2022-10-31T15:58:24.814Z,101666.75
2022-10-31T16:01:02.239Z,101672.06
2022-10-31T16:03:31.216Z,101665.25
2022-10-31T16:06:04.597Z,101669.41
2022-10-31T16:08:31.113Z,101667.75
2022-10-31T16:10:59.143Z,101660.78
2022-10-31T16:13:31.071Z,101659.13
2022-10-31T16:16:33.399Z,101661.78
2022-10-31T16:18:50.048Z,101667.91
2022-10-31T16:21:17.296Z,101665.41
2022-10-31T16:23:49.476Z,101663.59
2022-10-31T16:26:18.879Z,101666.25
2022-10-31T16:29:02.665Z,101657.44
2022-10-31T16:31:40.658Z,101661.09
2022-10-31T16:34:25.221Z,101658.44
2022-10-31T16:36:53.072Z,101658.44
2022-10-31T16:39:19.733Z,101655.16
2022-10-31T16:41:48.068Z,101655.16
2022-10-31T16:44:27.001Z,101655.16
2022-10-31T16:47:16.063Z,101663.13
2022-10-31T16:49:44.109Z,101657.81
2022-10-31T16:52:10.730Z,101661.44
2022-10-31T16:54:37.429Z,101657.97
2022-10-31T16:57:05.112Z,101655.31
2022-10-31T16:59:33.796Z,101649.31
2022-10-31T17:02:00.913Z,101650.16
2022-10-31T17:04:27.622Z,101654.31
2022-10-31T17:06:54.249Z,101646.50
2022-10-31T17:09:20.906Z,101645.69
2022-10-31T17:11:50.059Z,101642.00
2022-10-31T17:14:17.804Z,101649.16
2022-10-31T17:16:44.391Z,101646.50
2022-10-31T17:19:11.899Z,101647.34
2022-10-31T17:21:38.739Z,101644.69
2022-10-31T17:24:05.765Z,101635.84
2022-10-31T17:26:32.465Z,101644.69
2022-10-31T17:29:01.906Z,101646.50
2022-10-31T17:31:30.706Z,101640.16
2022-10-31T17:34:02.250Z,101635.84
2022-10-31T17:36:31.003Z,101637.88
2022-10-31T17:38:57.743Z,101636.19
2022-10-31T17:41:24.582Z,101642.19
2022-10-31T17:43:58.456Z,101643.19
2022-10-31T17:46:25.605Z,101635.22
2022-10-31T17:48:52.212Z,101632.72
2022-10-31T17:51:18.771Z,101628.41
2022-10-31T17:53:45.345Z,101635.38
2022-10-31T17:56:11.997Z,101634.38
2022-10-31T17:58:38.690Z,101636.19
2022-10-31T18:01:13.794Z,101636.19
2022-10-31T18:03:41.154Z,101629.22
2022-10-31T18:06:08.498Z,101638.03
2022-10-31T18:08:37.222Z,101631.88
2022-10-31T18:11:11.803Z,101623.91
2022-10-31T18:13:39.073Z,101622.25
2022-10-31T18:16:10.246Z,101618.59
2022-10-31T18:18:36.848Z,101620.59
2022-10-31T18:21:03.918Z,101612.63
2022-10-31T18:23:30.569Z,101612.78
2022-10-31T18:25:57.207Z,101609.97
2022-10-31T18:28:23.814Z,101603.00
2022-10-31T18:30:50.387Z,101602.16
2022-10-31T18:33:17.039Z,101598.50
2022-10-31T18:35:43.729Z,101604.66
2022-10-31T18:38:10.592Z,101605.47
2022-10-31T18:40:37.395Z,101605.47
2022-10-31T18:43:03.980Z,101600.16
2022-10-31T18:45:41.729Z,101600.34
2022-10-31T18:48:14.410Z,101599.34
2022-10-31T18:50:41.253Z,101606.31
2022-10-31T18:53:07.899Z,101599.34
2022-10-31T18:55:34.495Z,101596.69
2022-10-31T18:58:01.096Z,101595.84
2022-10-31T19:00:27.685Z,101590.34
2022-10-31T19:02:56.468Z,101586.03
2022-10-31T19:05:24.026Z,101578.06
2022-10-31T19:07:50.698Z,101579.09
2022-10-31T19:10:17.418Z,101581.75
2022-10-31T19:12:43.995Z,101577.41
2022-10-31T19:15:10.809Z,101578.25
2022-10-31T19:17:37.415Z,101576.41
2022-10-31T19:20:04.240Z,101572.09
2022-10-31T19:22:31.457Z,101567.78
2022-10-31T19:24:58.061Z,101566.59
2022-10-31T19:27:27.562Z,101564.94
2022-10-31T19:29:54.416Z,101562.44
2022-10-31T19:32:21.073Z,101567.78
2022-10-31T19:34:47.637Z,101573.09
2022-10-31T19:37:14.400Z,101565.94
2022-10-31T19:39:44.085Z,101561.63
2022-10-31T19:42:11.171Z,101561.63
2022-10-31T19:44:37.729Z,101557.31
2022-10-31T19:47:04.313Z,101553.84
2022-10-31T19:49:30.876Z,101552.00
2022-10-31T19:51:57.531Z,101554.81
2022-10-31T19:54:24.167Z,101554.66
2022-10-31T19:56:50.784Z,101546.69
2022-10-31T19:59:17.552Z,101553.84
2022-10-31T20:01:44.188Z,101556.50
2022-10-31T20:04:10.976Z,101544.19
2022-10-31T20:06:39.725Z,101541.53
2022-10-31T20:09:08.784Z,101546.84
2022-10-31T20:11:37.051Z,101538.88
2022-10-31T20:14:04.092Z,101538.88
2022-10-31T20:16:30.816Z,101534.22
2022-10-31T20:18:59.535Z,101521.94
2022-10-31T20:21:28.444Z,101517.44
2022-10-31T20:24:00.138Z,101508.66
2022-10-31T20:26:27.509Z,101513.97
2022-10-31T20:28:56.387Z,101522.91
2022-10-31T20:31:25.095Z,101522.91
2022-10-31T20:33:52.445Z,101522.91
2022-10-31T20:36:20.961Z,101517.59
2022-10-31T20:38:47.810Z,101507.19
2022-10-31T20:41:15.320Z,101509.84
2022-10-31T20:43:42.351Z,101514.94
2022-10-31T20:46:14.351Z,101512.50
2022-10-31T20:48:41.122Z,101512.50
2022-10-31T20:51:12.004Z,101515.97
2022-10-31T20:53:38.605Z,101526.59
2022-10-31T20:56:12.213Z,101523.94
2022-10-31T20:58:39.883Z,101515.31
2022-10-31T21:01:20.447Z,101511.66
2022-10-31T21:03:47.982Z,101512.81
2022-10-31T21:06:15.204Z,101511.66
2022-10-31T21:08:42.790Z,101506.34
2022-10-31T21:11:14.503Z,101488.75
2022-10-31T21:13:42.673Z,101490.56
2022-10-31T21:16:12.310Z,101493.38
2022-10-31T21:18:40.248Z,101497.69
2022-10-31T21:21:11.411Z,101494.22
2022-10-31T21:23:37.999Z,101496.03
2022-10-31T21:26:09.159Z,101491.56
2022-10-31T21:28:36.337Z,101477.44
2022-10-31T21:31:10.061Z,101480.09
2022-10-31T21:33:36.878Z,101490.72
2022-10-31T21:36:04.401Z,101488.06
2022-10-31T21:38:31.170Z,101474.94
2022-10-31T21:41:05.096Z,101474.94
2022-10-31T21:43:32.288Z,101459.84
2022-10-31T21:46:09.387Z,101456.34
2022-10-31T21:48:39.094Z,101468.66
2022-10-31T21:51:06.396Z,101466.97
2022-10-31T21:53:51.412Z,101466.00
2022-10-31T21:56:18.002Z,101462.50
2022-10-31T21:58:44.590Z,101451.22
2022-10-31T22:01:11.319Z,101443.91
2022-10-31T22:03:39.057Z,101441.25
2022-10-31T22:06:07.129Z,101442.06
2022-10-31T22:08:33.872Z,101439.59
2022-10-31T22:11:05.325Z,101445.72
2022-10-31T22:13:33.241Z,101440.41
2022-10-31T22:16:07.866Z,101439.59
2022-10-31T22:18:35.008Z,101439.59
2022-10-31T22:21:08.902Z,101435.09
2022-10-31T22:23:36.418Z,101438.75
2022-10-31T22:26:14.458Z,101447.56
2022-10-31T22:28:42.762Z,101444.06
2022-10-31T22:33:39.154Z,101451.22
2022-10-31T22:36:08.792Z,101443.25
2022-10-31T22:38:40.261Z,101451.41
2022-10-31T22:41:11.900Z,101441.75
2022-10-31T22:43:38.741Z,101443.59
2022-10-31T22:46:07.125Z,101432.97
2022-10-31T22:48:44.355Z,101439.09
2022-10-31T22:51:16.116Z,101432.97
2022-10-31T22:53:43.585Z,101426.00
2022-10-31T22:56:13.557Z,101423.50
2022-10-31T22:58:40.462Z,101424.31
2022-10-31T23:01:08.947Z,101418.84
2022-10-31T23:03:36.205Z,101415.38
2022-10-31T23:06:05.838Z,101420.69
2022-10-31T23:08:35.088Z,101412.72
2022-10-31T23:11:01.820Z,101413.69
2022-10-31T23:13:46.893Z,101399.59
2022-10-31T23:16:13.725Z,101403.91
2022-10-31T23:18:55.265Z,101402.25
2022-10-31T23:21:42.032Z,101392.44
2022-10-31T23:24:08.751Z,101387.13
2022-10-31T23:26:54.150Z,101380.16
2022-10-31T23:29:20.712Z,101374.03
2022-10-31T23:31:47.992Z,101374.03
2022-10-31T23:34:14.548Z,101370.38
2022-10-31T23:36:41.101Z,101373.84
2022-10-31T23:39:07.844Z,101355.44
2022-10-31T23:41:34.427Z,101365.22
2022-10-31T23:44:00.985Z,101367.03
2022-10-31T23:46:27.531Z,101371.38
2022-10-31T23:48:54.122Z,101360.75
2022-10-31T23:51:20.736Z,101357.25
2022-10-31T23:53:47.365Z,101343.97
2022-10-31T23:56:14.050Z,101347.63
2022-10-31T23:58:41.089Z,101344.81
